createdAt,value
2023-02-28T00:02:32.948Z,72.11
2023-02-28T00:05:34.822Z,71.91
2023-02-28T00:08:37.075Z,71.88
2023-02-28T00:11:38.958Z,71.83
2023-02-28T00:14:40.667Z,71.86
2023-02-28T00:17:42.260Z,71.99
2023-02-28T00:20:44.028Z,71.93
2023-02-28T00:23:45.819Z,71.86
2023-02-28T00:26:47.363Z,71.81
2023-02-28T00:29:49.417Z,71.92
2023-02-28T00:32:51.720Z,71.82
2023-02-28T00:35:53.447Z,71.95
2023-02-28T00:38:54.930Z,71.80
2023-02-28T00:41:56.496Z,71.88
2023-02-28T00:44:58.155Z,71.94
2023-02-28T00:47:59.822Z,71.74
2023-02-28T00:51:01.882Z,71.87
2023-02-28T00:54:03.822Z,71.96
2023-02-28T00:57:05.355Z,71.74
2023-02-28T01:00:08.713Z,71.96
2023-02-28T01:03:10.346Z,71.83
2023-02-28T01:06:12.070Z,71.89
2023-02-28T01:09:14.380Z,71.92
2023-02-28T01:12:16.846Z,71.85
2023-02-28T01:15:18.631Z,72.00
2023-02-28T01:18:21.670Z,72.08
2023-02-28T01:21:23.408Z,72.01
2023-02-28T01:24:25.734Z,71.89
2023-02-28T01:27:27.642Z,72.24
2023-02-28T01:30:29.253Z,72.30
2023-02-28T01:33:31.316Z,72.42
2023-02-28T01:36:32.945Z,72.30
2023-02-28T01:39:34.587Z,72.50
2023-02-28T01:42:36.108Z,72.43
2023-02-28T01:45:38.210Z,72.68
2023-02-28T01:48:43.951Z,72.48
2023-02-28T01:51:48.631Z,72.65
2023-02-28T01:54:53.389Z,72.83
2023-02-28T01:58:01.470Z,72.81
2023-02-28T02:01:03.160Z,72.89
2023-02-28T02:04:05.065Z,72.79
2023-02-28T02:07:06.678Z,72.93
2023-02-28T02:10:32.496Z,72.88
2023-02-28T02:14:19.188Z,72.82
2023-02-28T02:17:30.267Z,73.05
2023-02-28T02:21:05.953Z,73.00
2023-02-28T02:24:44.848Z,72.95
2023-02-28T02:28:11.436Z,72.57
2023-02-28T02:31:42.135Z,73.07
2023-02-28T02:35:30.676Z,72.77
2023-02-28T02:38:35.201Z,72.77
2023-02-28T02:41:53.229Z,72.91
2023-02-28T02:45:02.770Z,72.82
2023-02-28T02:48:07.975Z,73.19
2023-02-28T02:51:15.759Z,72.82
2023-02-28T02:54:22.046Z,73.17
2023-02-28T02:57:33.142Z,72.97
2023-02-28T03:00:44.766Z,73.09
2023-02-28T03:03:49.480Z,73.02
2023-02-28T03:06:52.325Z,73.23
2023-02-28T03:09:55.853Z,73.49
2023-02-28T03:13:27.527Z,73.44
2023-02-28T03:17:03.666Z,73.51
2023-02-28T03:20:29.201Z,73.66
2023-02-28T03:23:40.002Z,73.60
2023-02-28T03:26:45.042Z,73.51
2023-02-28T03:29:51.681Z,73.62
2023-02-28T03:32:59.511Z,73.69
2023-02-28T03:36:09.443Z,73.50
2023-02-28T03:39:57.128Z,73.61
2023-02-28T03:43:04.939Z,73.61
2023-02-28T03:46:11.427Z,73.79
2023-02-28T03:49:18.825Z,73.75
2023-02-28T03:52:24.220Z,73.69
2023-02-28T03:55:26.415Z,73.80
2023-02-28T03:58:38.786Z,73.77
2023-02-28T04:01:44.017Z,74.13
2023-02-28T04:04:45.760Z,74.17
2023-02-28T04:07:47.862Z,73.80
2023-02-28T04:10:57.332Z,74.01
2023-02-28T04:13:59.281Z,73.69
2023-02-28T04:17:04.196Z,73.88
2023-02-28T04:20:06.300Z,74.29
2023-02-28T04:23:07.958Z,74.26
2023-02-28T04:26:09.570Z,73.88
2023-02-28T04:29:13.586Z,74.14
2023-02-28T04:32:15.363Z,74.20
2023-02-28T04:35:17.006Z,74.10
2023-02-28T04:38:18.693Z,74.38
2023-02-28T04:41:20.806Z,74.02
2023-02-28T04:44:23.366Z,74.26
2023-02-28T04:47:24.944Z,74.41
2023-02-28T04:50:26.484Z,74.10
2023-02-28T04:53:29.057Z,74.43
2023-02-28T04:56:30.730Z,74.39
2023-02-28T04:59:32.464Z,74.55
2023-02-28T05:02:36.060Z,74.26
2023-02-28T05:05:37.781Z,73.69
2023-02-28T05:08:40.131Z,73.40
2023-02-28T05:11:42.455Z,73.54
2023-02-28T05:14:44.098Z,73.33
2023-02-28T05:17:45.739Z,73.70
2023-02-28T05:20:47.421Z,73.57
2023-02-28T05:23:48.948Z,73.56
2023-02-28T05:26:53.363Z,73.65
2023-02-28T05:29:54.904Z,73.87
2023-02-28T05:32:56.600Z,73.72
2023-02-28T05:35:58.169Z,74.09
2023-02-28T05:38:59.782Z,74.48
2023-02-28T05:42:01.471Z,74.53
2023-02-28T05:45:04.148Z,74.77
2023-02-28T05:48:06.099Z,74.82
2023-02-28T05:51:09.136Z,75.13
2023-02-28T05:54:12.878Z,75.20
2023-02-28T05:57:24.452Z,75.04
2023-02-28T06:00:26.542Z,74.90
2023-02-28T06:03:28.582Z,74.44
2023-02-28T06:06:30.583Z,74.45
2023-02-28T06:09:32.287Z,74.78
2023-02-28T06:12:33.895Z,75.44
2023-02-28T06:15:35.434Z,76.07
2023-02-28T06:18:37.228Z,75.78
2023-02-28T06:21:41.092Z,74.97
2023-02-28T06:24:43.105Z,74.88
2023-02-28T06:27:44.929Z,74.77
2023-02-28T06:30:46.781Z,74.51
2023-02-28T06:33:49.193Z,74.66
2023-02-28T06:36:52.787Z,74.83
2023-02-28T06:39:55.472Z,74.40
2023-02-28T06:42:56.977Z,74.20
2023-02-28T06:45:59.757Z,74.75
2023-02-28T06:49:01.283Z,74.44
2023-02-28T06:52:02.982Z,73.92
2023-02-28T06:55:08.723Z,74.03
2023-02-28T06:58:10.394Z,73.10
2023-02-28T07:01:11.972Z,72.92
2023-02-28T07:04:13.820Z,72.78
2023-02-28T07:07:15.489Z,72.75
2023-02-28T07:10:19.694Z,72.57
2023-02-28T07:13:22.660Z,73.34
2023-02-28T07:16:25.696Z,73.73
2023-02-28T07:19:27.514Z,73.33
2023-02-28T07:22:29.184Z,73.53
2023-02-28T07:25:31.034Z,73.56
2023-02-28T07:28:32.610Z,72.61
2023-02-28T07:31:34.174Z,72.93
2023-02-28T07:34:35.852Z,72.90
2023-02-28T07:37:37.467Z,72.95
2023-02-28T07:40:39.114Z,72.71
2023-02-28T07:43:40.791Z,72.29
2023-02-28T07:46:42.592Z,72.38
2023-02-28T07:49:44.203Z,72.26
2023-02-28T07:52:45.738Z,72.65
2023-02-28T07:55:47.516Z,72.62
2023-02-28T07:58:49.169Z,73.02
2023-02-28T08:01:52.159Z,72.53
2023-02-28T08:04:53.803Z,72.80
2023-02-28T08:07:55.473Z,72.84
2023-02-28T08:10:59.521Z,73.29
2023-02-28T08:14:01.246Z,73.81
2023-02-28T08:17:02.747Z,73.20
2023-02-28T08:20:04.636Z,73.22
2023-02-28T08:23:06.150Z,74.11
2023-02-28T08:26:07.855Z,73.19
2023-02-28T08:29:09.422Z,73.00
2023-02-28T08:32:27.216Z,70.55
2023-02-28T08:35:30.522Z,69.24
2023-02-28T08:38:32.266Z,68.02
2023-02-28T08:41:34.712Z,68.91
2023-02-28T08:44:36.357Z,66.77
2023-02-28T08:47:37.840Z,66.10
2023-02-28T08:50:39.344Z,63.85
2023-02-28T08:53:41.423Z,65.32
2023-02-28T08:56:43.187Z,65.53
2023-02-28T08:59:44.804Z,62.62
2023-02-28T09:02:47.814Z,61.93
2023-02-28T09:06:07.714Z,63.24
2023-02-28T09:09:09.601Z,61.69
2023-02-28T09:12:11.294Z,59.84
2023-02-28T09:15:12.815Z,58.24
2023-02-28T09:18:15.310Z,60.96
2023-02-28T09:21:18.747Z,58.49
2023-02-28T09:24:20.360Z,57.93
2023-02-28T09:27:21.920Z,56.83
2023-02-28T09:30:23.589Z,58.01
2023-02-28T09:33:26.303Z,58.80
2023-02-28T09:36:41.509Z,59.70
2023-02-28T09:39:45.736Z,61.25
2023-02-28T09:42:49.320Z,59.99
2023-02-28T09:45:58.306Z,58.21
2023-02-28T09:49:03.817Z,60.55
2023-02-28T09:52:10.465Z,56.73
2023-02-28T09:55:23.616Z,57.59
2023-02-28T09:58:38.481Z,60.94
2023-02-28T10:01:40.822Z,58.94
2023-02-28T10:04:58.546Z,53.71
2023-02-28T10:08:14.217Z,56.77
2023-02-28T10:11:17.605Z,53.17
2023-02-28T10:14:25.621Z,56.31
2023-02-28T10:17:29.534Z,56.89
2023-02-28T10:20:34.607Z,58.09
2023-02-28T10:23:38.065Z,53.81
2023-02-28T10:26:40.454Z,52.30
2023-02-28T10:29:47.390Z,55.79
2023-02-28T10:32:51.799Z,57.08
2023-02-28T10:35:54.149Z,55.90
2023-02-28T10:38:55.859Z,56.54
2023-02-28T10:41:57.404Z,55.76
2023-02-28T10:45:15.847Z,50.32
2023-02-28T10:48:17.495Z,52.63
2023-02-28T10:51:20.478Z,53.86
2023-02-28T10:54:37.521Z,54.61
2023-02-28T10:57:39.044Z,55.43
2023-02-28T11:00:41.084Z,55.41
2023-02-28T11:03:43.014Z,55.03
2023-02-28T11:06:44.734Z,53.32
2023-02-28T11:09:49.283Z,51.12
2023-02-28T11:12:53.306Z,53.30
2023-02-28T11:16:00.437Z,52.16
2023-02-28T11:19:02.914Z,52.72
2023-02-28T11:22:05.598Z,52.98
2023-02-28T11:25:20.529Z,51.22
2023-02-28T11:28:28.034Z,51.67
2023-02-28T11:31:30.029Z,52.12
2023-02-28T11:34:32.804Z,48.74
2023-02-28T11:37:34.489Z,50.34
2023-02-28T11:40:46.189Z,51.56
2023-02-28T11:43:59.978Z,50.64
2023-02-28T11:47:15.651Z,50.29
2023-02-28T11:50:40.967Z,49.74
2023-02-28T11:53:53.084Z,49.32
2023-02-28T11:57:09.406Z,51.28
2023-02-28T12:00:54.037Z,50.31
2023-02-28T12:04:33.606Z,46.75
2023-02-28T12:08:00.373Z,46.77
2023-02-28T12:11:20.691Z,47.26
2023-02-28T12:14:25.612Z,47.81
2023-02-28T12:17:48.947Z,50.52
2023-02-28T12:20:55.440Z,51.81
2023-02-28T12:24:09.836Z,50.72
2023-02-28T12:27:16.105Z,52.17
2023-02-28T12:30:29.959Z,52.04
2023-02-28T12:33:36.346Z,53.33
2023-02-28T12:36:38.511Z,53.86
2023-02-28T12:39:50.705Z,53.88
2023-02-28T12:42:56.411Z,54.19
2023-02-28T12:46:00.629Z,53.44
2023-02-28T12:49:07.499Z,53.62
2023-02-28T12:52:12.410Z,52.25
2023-02-28T12:55:44.180Z,51.76
2023-02-28T12:59:21.931Z,54.11
2023-02-28T13:02:42.236Z,54.70
2023-02-28T13:06:16.623Z,54.77
2023-02-28T13:09:18.919Z,54.82
2023-02-28T13:12:20.622Z,55.11
2023-02-28T13:15:26.068Z,55.36
2023-02-28T13:18:45.335Z,54.93
2023-02-28T13:21:49.903Z,52.46
2023-02-28T13:24:54.263Z,53.24
2023-02-28T13:27:57.049Z,54.16
2023-02-28T13:30:58.657Z,54.76
2023-02-28T13:34:07.020Z,54.46
2023-02-28T13:37:24.393Z,52.39
2023-02-28T13:40:33.663Z,54.14
2023-02-28T13:44:02.173Z,54.43
2023-02-28T13:47:03.903Z,54.40
2023-02-28T13:50:34.965Z,55.20
2023-02-28T13:53:51.412Z,54.90
2023-02-28T13:57:31.954Z,54.32
2023-02-28T14:00:38.846Z,54.43
2023-02-28T14:04:05.614Z,54.66
2023-02-28T14:07:07.894Z,54.83
2023-02-28T14:10:37.177Z,55.12
2023-02-28T14:13:47.048Z,55.29
2023-02-28T14:16:50.199Z,55.15
2023-02-28T14:19:51.853Z,55.25
2023-02-28T14:23:15.632Z,55.48
2023-02-28T14:26:59.000Z,55.50
2023-02-28T14:30:12.940Z,55.38
2023-02-28T14:33:26.833Z,56.07
2023-02-28T14:36:33.778Z,56.05
2023-02-28T14:39:35.518Z,55.90
2023-02-28T14:42:37.682Z,56.32
2023-02-28T14:45:39.328Z,56.76
2023-02-28T14:48:40.905Z,56.64
2023-02-28T14:51:42.625Z,56.32
2023-02-28T14:54:44.962Z,56.49
2023-02-28T14:57:57.914Z,56.92
2023-02-28T15:01:01.872Z,57.27
2023-02-28T15:04:06.081Z,57.14
2023-02-28T15:07:15.226Z,57.16
2023-02-28T15:10:27.200Z,57.14
2023-02-28T15:13:39.843Z,56.87
2023-02-28T15:16:43.579Z,56.40
2023-02-28T15:19:49.466Z,56.55
2023-02-28T15:22:52.296Z,56.69
2023-02-28T15:25:54.504Z,56.76
2023-02-28T15:29:13.226Z,56.99
2023-02-28T15:32:33.641Z,56.84
2023-02-28T15:35:36.071Z,56.88
2023-02-28T15:38:37.639Z,57.12
2023-02-28T15:41:39.667Z,57.22
2023-02-28T15:44:41.275Z,57.07
2023-02-28T15:47:46.947Z,57.34
2023-02-28T15:50:52.925Z,57.41
2023-02-28T15:54:01.423Z,57.15
2023-02-28T15:57:06.442Z,57.38
2023-02-28T16:00:13.735Z,57.29
2023-02-28T16:03:29.024Z,57.66
2023-02-28T16:06:45.111Z,57.72
2023-02-28T16:09:46.813Z,58.04
2023-02-28T16:12:48.467Z,58.28
2023-02-28T16:15:50.008Z,58.35
2023-02-28T16:18:51.892Z,58.70
2023-02-28T16:21:53.442Z,58.95
2023-02-28T16:24:55.108Z,59.01
2023-02-28T16:27:56.666Z,59.15
2023-02-28T16:30:58.403Z,59.09
2023-02-28T16:34:00.196Z,58.59
2023-02-28T16:37:01.856Z,58.12
2023-02-28T16:40:03.694Z,58.32
2023-02-28T16:43:08.919Z,58.28
2023-02-28T16:46:12.532Z,58.63
2023-02-28T16:49:14.107Z,58.96
2023-02-28T16:52:15.987Z,59.04
2023-02-28T16:55:17.706Z,59.34
2023-02-28T16:58:19.441Z,59.60
2023-02-28T17:01:21.165Z,59.65
2023-02-28T17:04:22.798Z,60.06
2023-02-28T17:07:24.914Z,60.26
2023-02-28T17:10:26.964Z,60.20
2023-02-28T17:13:28.726Z,60.33
2023-02-28T17:16:32.957Z,60.32
2023-02-28T17:19:35.037Z,60.61
2023-02-28T17:22:36.526Z,60.81
2023-02-28T17:25:38.255Z,60.84
2023-02-28T17:28:39.971Z,60.87
2023-02-28T17:31:41.581Z,60.92
2023-02-28T17:34:44.320Z,61.12
2023-02-28T17:37:46.140Z,61.04
2023-02-28T17:40:47.627Z,61.17
2023-02-28T17:43:49.370Z,61.59
2023-02-28T17:46:51.559Z,61.96
2023-02-28T17:49:53.261Z,62.19
2023-02-28T17:52:54.957Z,61.90
2023-02-28T17:55:56.776Z,62.02
2023-02-28T17:58:58.592Z,61.83
2023-02-28T18:02:01.591Z,62.04
2023-02-28T18:05:03.293Z,62.51
2023-02-28T18:08:05.037Z,63.29
2023-02-28T18:11:06.581Z,63.24
2023-02-28T18:14:08.588Z,63.36
2023-02-28T18:17:11.310Z,63.79
2023-02-28T18:20:13.260Z,64.00
2023-02-28T18:23:15.275Z,63.68
2023-02-28T18:26:18.909Z,63.89
2023-02-28T18:29:26.274Z,64.35
2023-02-28T18:32:29.462Z,64.43
2023-02-28T18:35:31.864Z,65.59
2023-02-28T18:38:33.576Z,65.50
2023-02-28T18:41:35.361Z,65.82
2023-02-28T18:44:37.763Z,65.63
2023-02-28T18:47:39.491Z,65.93
2023-02-28T18:50:41.650Z,66.20
2023-02-28T18:53:44.257Z,66.19
2023-02-28T18:56:46.024Z,66.53
2023-02-28T18:59:47.773Z,66.15
2023-02-28T19:02:50.227Z,66.17
2023-02-28T19:05:57.069Z,66.30
2023-02-28T19:09:01.704Z,66.23
2023-02-28T19:12:03.505Z,66.84
2023-02-28T19:15:06.581Z,66.70
2023-02-28T19:18:08.187Z,66.78
2023-02-28T19:21:12.833Z,66.98
2023-02-28T19:24:14.513Z,67.04
2023-02-28T19:27:16.382Z,67.46
2023-02-28T19:30:18.066Z,67.64
2023-02-28T19:33:20.586Z,67.23
2023-02-28T19:36:22.363Z,66.57
2023-02-28T19:39:23.865Z,66.06
2023-02-28T19:42:25.723Z,65.90
2023-02-28T19:45:27.570Z,65.95
2023-02-28T19:48:29.485Z,66.04
2023-02-28T19:51:31.125Z,65.97
2023-02-28T19:54:33.306Z,66.25
2023-02-28T19:57:35.238Z,66.17
2023-02-28T20:00:37.157Z,66.11
2023-02-28T20:03:38.860Z,66.17
2023-02-28T20:06:40.635Z,66.35
2023-02-28T20:09:42.360Z,66.31
2023-02-28T20:12:44.264Z,66.25
2023-02-28T20:15:48.724Z,66.24
2023-02-28T20:18:51.434Z,66.43
2023-02-28T20:21:54.003Z,66.29
2023-02-28T20:24:56.622Z,66.60
2023-02-28T20:27:58.367Z,66.37
2023-02-28T20:31:02.819Z,66.62
2023-02-28T20:34:05.318Z,66.69
2023-02-28T20:37:12.777Z,67.27
2023-02-28T20:40:14.643Z,67.47
2023-02-28T20:43:16.079Z,67.17
2023-02-28T20:46:17.908Z,67.39
2023-02-28T20:49:19.645Z,67.83
2023-02-28T20:52:21.324Z,67.89
2023-02-28T20:55:23.061Z,67.57
2023-02-28T20:58:26.413Z,68.56
2023-02-28T21:01:29.414Z,68.57
2023-02-28T21:04:31.262Z,68.17
2023-02-28T21:07:32.996Z,68.05
2023-02-28T21:10:38.780Z,67.95
2023-02-28T21:13:41.812Z,67.96
2023-02-28T21:16:43.942Z,68.50
2023-02-28T21:19:46.212Z,68.67
2023-02-28T21:22:48.737Z,68.31
2023-02-28T21:25:50.560Z,68.27
2023-02-28T21:28:56.171Z,67.97
2023-02-28T21:31:57.937Z,68.21
2023-02-28T21:34:59.446Z,68.75
2023-02-28T21:38:01.013Z,69.11
2023-02-28T21:41:12.355Z,69.27
2023-02-28T21:44:14.555Z,69.09
2023-02-28T21:47:16.253Z,68.91
2023-02-28T21:50:17.961Z,69.01
2023-02-28T21:53:19.580Z,69.10
2023-02-28T21:56:25.422Z,69.18
2023-02-28T21:59:27.534Z,69.41
2023-02-28T22:02:30.380Z,69.40
2023-02-28T22:05:32.069Z,69.33
2023-02-28T22:08:33.848Z,69.39
2023-02-28T22:11:37.267Z,69.41
2023-02-28T22:14:39.821Z,69.89
2023-02-28T22:17:41.979Z,69.62
2023-02-28T22:20:43.522Z,69.44
2023-02-28T22:23:45.950Z,69.57
2023-02-28T22:26:49.715Z,69.52
2023-02-28T22:29:51.351Z,69.66
2023-02-28T22:32:52.983Z,69.78
2023-02-28T22:35:54.896Z,69.58
2023-02-28T22:38:57.400Z,69.64
2023-02-28T22:41:59.063Z,69.34
2023-02-28T22:45:00.666Z,69.56
2023-02-28T22:48:04.258Z,69.38
2023-02-28T22:51:10.619Z,69.46
2023-02-28T22:54:12.798Z,69.52
2023-02-28T22:57:14.531Z,69.47
2023-02-28T23:00:16.594Z,69.63
2023-02-28T23:03:18.168Z,69.84
2023-02-28T23:06:42.041Z,69.83
2023-02-28T23:09:43.637Z,70.21
2023-02-28T23:12:45.180Z,70.09
2023-02-28T23:15:47.427Z,70.21
2023-02-28T23:18:49.417Z,70.24
2023-02-28T23:21:51.101Z,70.14
2023-02-28T23:24:52.669Z,70.45
2023-02-28T23:27:54.333Z,70.69
2023-02-28T23:30:55.870Z,70.44
2023-02-28T23:33:57.659Z,70.33
2023-02-28T23:37:01.316Z,70.44
2023-02-28T23:40:04.673Z,70.30
2023-02-28T23:43:06.242Z,70.72
2023-02-28T23:46:08.904Z,70.73
2023-02-28T23:49:10.718Z,70.79
2023-02-28T23:52:12.466Z,70.61
2023-02-28T23:55:14.049Z,70.73
2023-02-28T23:58:15.996Z,70.68
